createdAt,value
2022-10-07T00:03:06.597Z,2.00
2022-10-07T00:08:10.933Z,1.00
2022-10-07T00:13:13.617Z,2.00
2022-10-07T00:18:16.216Z,1.25
2022-10-07T00:23:20.208Z,1.00
2022-10-07T00:28:25.548Z,1.50
2022-10-07T00:33:31.252Z,1.50
2022-10-07T00:38:35.180Z,2.00
2022-10-07T00:43:37.836Z,2.00
2022-10-07T00:48:41.241Z,1.00
2022-10-07T00:53:49.235Z,2.00
2022-10-07T00:58:52.685Z,2.00
2022-10-07T01:03:55.647Z,1.00
2022-10-07T01:09:00.964Z,1.75
2022-10-07T01:14:11.124Z,0.75
2022-10-07T01:19:36.255Z,1.00
2022-10-07T01:24:43.841Z,1.25
2022-10-07T01:29:56.089Z,2.00
2022-10-07T01:35:00.900Z,1.00
2022-10-07T01:40:11.256Z,1.25
2022-10-07T01:45:21.302Z,1.50
2022-10-07T01:50:27.404Z,2.00
2022-10-07T01:55:43.280Z,1.00
2022-10-07T02:00:55.187Z,1.25
2022-10-07T02:06:06.320Z,2.25
2022-10-07T02:11:16.502Z,2.00
2022-10-07T02:16:30.909Z,0.00
2022-10-07T02:21:36.908Z,1.25
2022-10-07T02:26:42.532Z,1.50
2022-10-07T02:31:49.477Z,1.00
2022-10-07T02:36:55.935Z,1.00
2022-10-07T02:42:04.257Z,1.00
2022-10-07T02:47:16.149Z,2.00
2022-10-07T02:52:21.223Z,1.25
2022-10-07T02:57:28.784Z,1.00
2022-10-07T03:02:44.337Z,1.00
2022-10-07T03:07:48.422Z,1.00
2022-10-07T03:12:51.181Z,2.00
2022-10-07T03:17:55.215Z,1.00
2022-10-07T03:22:57.896Z,1.00
2022-10-07T03:28:00.557Z,0.75
2022-10-07T03:33:04.886Z,1.00
2022-10-07T03:38:08.426Z,1.00
2022-10-07T03:43:11.576Z,0.75
2022-10-07T03:48:16.732Z,0.50
2022-10-07T03:53:20.336Z,1.00
2022-10-07T03:58:23.655Z,1.50
2022-10-07T04:03:28.219Z,1.00
2022-10-07T04:08:32.882Z,1.00
2022-10-07T04:13:37.103Z,0.75
2022-10-07T04:18:42.762Z,2.00
2022-10-07T04:23:45.987Z,1.00
2022-10-07T04:28:51.398Z,1.00
2022-10-07T04:33:58.212Z,0.75
2022-10-07T04:39:06.541Z,1.00
2022-10-07T04:44:27.958Z,1.50
2022-10-07T04:49:38.540Z,1.00
2022-10-07T04:54:43.967Z,1.00
2022-10-07T04:59:46.872Z,1.00
2022-10-07T05:04:55.252Z,1.50
2022-10-07T05:09:57.985Z,1.00
2022-10-07T05:15:03.026Z,0.75
2022-10-07T05:20:08.330Z,1.00
2022-10-07T05:25:11.257Z,1.00
2022-10-07T05:30:14.584Z,1.00
2022-10-07T05:35:18.653Z,1.00
2022-10-07T05:40:21.510Z,0.50
2022-10-07T05:45:25.699Z,0.75
2022-10-07T05:50:30.440Z,1.00
2022-10-07T05:55:35.723Z,1.00
2022-10-07T06:00:50.809Z,1.00
2022-10-07T06:05:55.975Z,0.00
2022-10-07T06:11:19.631Z,2.00
2022-10-07T06:16:24.481Z,0.25
2022-10-07T06:21:29.460Z,1.00
2022-10-07T06:26:36.667Z,1.00
2022-10-07T06:31:39.451Z,0.50
2022-10-07T06:36:44.159Z,1.00
2022-10-07T06:41:47.389Z,0.00
2022-10-07T06:47:22.519Z,1.00
2022-10-07T06:52:27.502Z,1.00
2022-10-07T06:57:44.894Z,1.00
2022-10-07T07:02:48.627Z,5.00
2022-10-07T07:07:53.071Z,4.50
2022-10-07T07:12:56.510Z,5.75
2022-10-07T07:17:59.245Z,5.00
2022-10-07T07:23:03.510Z,8.00
2022-10-07T07:28:08.078Z,4.00
2022-10-07T07:33:11.828Z,4.00
2022-10-07T07:38:15.945Z,4.00
2022-10-07T07:43:18.983Z,4.00
2022-10-07T07:48:21.716Z,3.25
2022-10-07T07:53:25.878Z,3.00
2022-10-07T07:58:29.927Z,4.00
2022-10-07T08:03:33.336Z,3.00
2022-10-07T08:08:37.661Z,4.00
2022-10-07T08:13:41.464Z,3.00
2022-10-07T08:18:48.029Z,3.00
2022-10-07T08:23:55.109Z,2.50
2022-10-07T08:28:59.748Z,3.00
2022-10-07T08:34:04.927Z,3.00
2022-10-07T08:39:08.828Z,2.75
2022-10-07T08:44:20.207Z,2.25
2022-10-07T08:49:31.692Z,3.25
2022-10-07T08:54:35.873Z,2.25
2022-10-07T08:59:47.685Z,3.25
2022-10-07T09:04:57.666Z,2.50
2022-10-07T09:10:15.744Z,2.50
2022-10-07T09:15:23.583Z,3.00
2022-10-07T09:20:31.917Z,3.00
2022-10-07T09:25:36.206Z,2.00
2022-10-07T09:30:38.984Z,2.00
2022-10-07T09:35:42.811Z,2.00
2022-10-07T09:41:03.987Z,1.25
2022-10-07T09:46:07.585Z,2.00
2022-10-07T09:51:15.510Z,2.00
2022-10-07T09:56:41.690Z,2.00
2022-10-07T10:01:50.576Z,2.50
2022-10-07T10:06:55.342Z,2.00
2022-10-07T10:12:12.103Z,2.75
2022-10-07T10:17:24.095Z,2.00
2022-10-07T10:22:28.393Z,2.00
2022-10-07T10:27:39.714Z,2.00
2022-10-07T10:33:14.658Z,1.00
2022-10-07T10:38:32.343Z,2.00
2022-10-07T10:43:51.753Z,2.00
2022-10-07T10:49:00.827Z,2.00
2022-10-07T10:54:18.719Z,2.00
2022-10-07T10:59:47.185Z,1.00
2022-10-07T11:04:54.059Z,0.75
2022-10-07T11:10:00.742Z,2.00
2022-10-07T11:15:15.148Z,1.00
2022-10-07T11:20:25.098Z,1.00
2022-10-07T11:25:34.214Z,2.00
2022-10-07T11:30:49.196Z,1.50
2022-10-07T11:35:57.323Z,1.00
2022-10-07T11:41:05.850Z,1.00
2022-10-07T11:46:17.266Z,1.50
2022-10-07T11:51:25.606Z,1.75
2022-10-07T11:56:37.895Z,1.00
2022-10-07T12:01:52.304Z,1.00
2022-10-07T12:07:34.764Z,1.00
2022-10-07T12:12:49.407Z,1.00
2022-10-07T12:17:56.830Z,1.00
2022-10-07T12:23:37.965Z,1.00
2022-10-07T12:28:48.647Z,1.00
2022-10-07T12:33:58.367Z,1.25
2022-10-07T12:39:36.045Z,1.00
2022-10-07T12:44:45.495Z,1.00
2022-10-07T12:49:54.449Z,1.50
2022-10-07T12:55:01.860Z,0.00
2022-10-07T13:00:08.210Z,0.00
2022-10-07T13:05:47.309Z,0.75
2022-10-07T13:11:33.263Z,1.00
2022-10-07T13:16:42.276Z,0.75
2022-10-07T13:21:52.539Z,1.00
2022-10-07T13:26:57.069Z,1.00
2022-10-07T13:32:05.694Z,1.00
2022-10-07T13:37:28.928Z,1.00
2022-10-07T13:42:31.627Z,0.50
2022-10-07T13:47:35.128Z,0.50
2022-10-07T13:52:44.324Z,0.75
2022-10-07T13:57:47.608Z,1.25
2022-10-07T14:02:51.020Z,1.00
2022-10-07T14:07:58.105Z,1.00
2022-10-07T14:13:04.119Z,0.00
2022-10-07T14:18:12.214Z,1.00
2022-10-07T14:23:28.475Z,0.25
2022-10-07T14:28:32.518Z,0.50
2022-10-07T14:34:06.895Z,0.50
2022-10-07T14:39:24.951Z,1.00
2022-10-07T14:44:27.811Z,0.50
2022-10-07T14:49:30.472Z,0.00
2022-10-07T14:54:36.019Z,0.00
2022-10-07T14:59:38.879Z,0.00
2022-10-07T15:04:42.021Z,1.00
2022-10-07T15:09:47.314Z,1.00
2022-10-07T15:14:49.966Z,0.75
2022-10-07T15:19:53.196Z,1.00
2022-10-07T15:24:57.431Z,0.25
2022-10-07T15:30:00.301Z,0.00
2022-10-07T15:35:03.120Z,1.00
2022-10-07T15:40:08.831Z,0.50
2022-10-07T15:45:12.152Z,0.25
2022-10-07T15:50:16.013Z,1.00
2022-10-07T15:55:20.005Z,3.00
2022-10-07T16:00:22.617Z,24.60
2022-10-07T16:05:25.320Z,21.60
2022-10-07T16:10:29.455Z,42.60
2022-10-07T16:15:32.223Z,30.60
2022-10-07T16:20:38.938Z,20.60
2022-10-07T16:25:42.864Z,11.00
2022-10-07T16:30:50.779Z,11.75
2022-10-07T16:35:53.409Z,11.75
2022-10-07T16:40:57.372Z,12.00
2022-10-07T16:46:01.967Z,12.50
2022-10-07T16:51:05.645Z,11.00
2022-10-07T16:56:10.764Z,12.75
2022-10-07T17:01:16.501Z,10.25
2022-10-07T17:06:20.783Z,9.75
2022-10-07T17:11:31.115Z,10.25
2022-10-07T17:16:36.355Z,9.75
2022-10-07T17:21:44.083Z,9.50
2022-10-07T17:26:49.402Z,8.00
2022-10-07T17:31:52.467Z,8.25
2022-10-07T17:36:55.080Z,9.00
2022-10-07T17:41:59.092Z,8.25
2022-10-07T17:47:03.862Z,8.25
2022-10-07T17:52:06.908Z,7.00
2022-10-07T17:57:11.048Z,6.75
2022-10-07T18:02:13.713Z,8.00
2022-10-07T18:07:17.389Z,7.75
2022-10-07T18:12:35.334Z,7.50
2022-10-07T18:17:37.959Z,8.00
2022-10-07T18:22:40.622Z,8.00
2022-10-07T18:27:44.878Z,8.00
2022-10-07T18:32:47.669Z,8.25
2022-10-07T18:37:52.119Z,7.25
2022-10-07T18:42:56.104Z,8.25
2022-10-07T18:47:58.708Z,6.00
2022-10-07T18:53:01.387Z,8.00
2022-10-07T18:58:05.347Z,6.50
2022-10-07T19:03:08.140Z,6.50
2022-10-07T19:08:11.691Z,8.00
2022-10-07T19:13:34.121Z,6.75
2022-10-07T19:18:37.760Z,5.75
2022-10-07T19:23:41.244Z,6.00
2022-10-07T19:28:46.602Z,5.50
2022-10-07T19:33:50.122Z,6.00
2022-10-07T19:38:53.390Z,5.00
2022-10-07T19:43:58.536Z,6.00
2022-10-07T19:49:02.725Z,6.00
2022-10-07T19:54:09.869Z,5.67
2022-10-07T19:59:15.352Z,4.25
2022-10-07T20:04:20.812Z,5.25
2022-10-07T20:09:24.037Z,5.00
2022-10-07T20:14:28.186Z,6.25
2022-10-07T20:19:30.771Z,6.50
2022-10-07T20:24:33.563Z,7.25
2022-10-07T20:29:56.957Z,4.50
2022-10-07T20:34:59.630Z,4.75
2022-10-07T20:40:19.871Z,5.50
2022-10-07T20:45:23.832Z,4.25
2022-10-07T20:50:26.635Z,5.25
2022-10-07T20:55:34.031Z,6.00
2022-10-07T21:00:40.103Z,6.00
2022-10-07T21:05:42.724Z,5.00
2022-10-07T21:10:45.299Z,6.00
2022-10-07T21:15:49.221Z,5.00
2022-10-07T21:20:56.525Z,6.00
2022-10-07T21:26:01.324Z,5.50
2022-10-07T21:31:08.505Z,4.50
2022-10-07T21:36:15.736Z,5.00
2022-10-07T21:41:23.353Z,5.50
2022-10-07T21:46:30.457Z,5.50
2022-10-07T21:51:34.333Z,4.00
2022-10-07T21:56:36.999Z,4.25
2022-10-07T22:01:41.734Z,5.00
2022-10-07T22:07:02.347Z,4.75
2022-10-07T22:12:05.296Z,4.00
2022-10-07T22:17:09.320Z,5.00
2022-10-07T22:22:12.823Z,5.00
2022-10-07T22:27:15.407Z,4.00
2022-10-07T22:32:19.329Z,5.25
2022-10-07T22:37:22.039Z,4.75
2022-10-07T22:42:24.595Z,5.50
2022-10-07T22:47:29.031Z,4.50
2022-10-07T22:52:31.815Z,4.00
2022-10-07T22:57:36.347Z,4.00
2022-10-07T23:02:40.437Z,4.25
2022-10-07T23:07:43.144Z,5.25
2022-10-07T23:12:46.536Z,4.00
2022-10-07T23:17:50.706Z,5.00
2022-10-07T23:22:53.307Z,4.00
2022-10-07T23:27:55.903Z,4.00
2022-10-07T23:32:59.836Z,5.00
2022-10-07T23:38:02.498Z,3.25
2022-10-07T23:43:05.680Z,3.75
2022-10-07T23:48:09.727Z,3.00
2022-10-07T23:53:12.463Z,4.00
2022-10-07T23:58:16.051Z,4.00
